createdAt,value
2023-01-22T00:04:54.672Z,-4.43
2023-01-22T00:09:56.827Z,-4.90
2023-01-22T00:14:58.979Z,-4.75
2023-01-22T00:20:01.090Z,-4.95
2023-01-22T00:25:03.974Z,-4.88
2023-01-22T00:30:06.903Z,-4.66
2023-01-22T00:35:09.346Z,-4.60
2023-01-22T00:40:12.312Z,-4.55
2023-01-22T00:45:15.577Z,-4.87
2023-01-22T00:50:18.041Z,-4.97
2023-01-22T00:55:20.828Z,-4.75
2023-01-22T01:00:23.276Z,-4.81
2023-01-22T01:05:25.799Z,-5.04
2023-01-22T01:10:27.961Z,-5.27
2023-01-22T01:15:30.156Z,-5.04
2023-01-22T01:20:32.356Z,-4.92
2023-01-22T01:25:34.883Z,-4.88
2023-01-22T01:30:37.207Z,-5.11
2023-01-22T01:35:40.040Z,-4.79
2023-01-22T01:40:44.207Z,-4.71
2023-01-22T01:45:46.422Z,-4.71
2023-01-22T01:51:03.576Z,-4.85
2023-01-22T01:56:28.798Z,-4.74
2023-01-22T02:01:31.690Z,-5.22
2023-01-22T02:06:34.260Z,-5.22
2023-01-22T02:11:36.649Z,-4.79
2023-01-22T02:16:38.983Z,-5.19
2023-01-22T02:21:43.996Z,-4.95
2023-01-22T02:26:46.487Z,-5.08
2023-01-22T02:31:53.193Z,-5.01
2023-01-22T02:36:56.142Z,-5.29
2023-01-22T02:41:58.777Z,-5.12
2023-01-22T02:47:01.202Z,-5.20
2023-01-22T02:52:06.942Z,-5.19
2023-01-22T02:57:10.279Z,-5.46
2023-01-22T03:02:15.180Z,-5.42
2023-01-22T03:07:19.261Z,-5.31
2023-01-22T03:12:21.584Z,-5.81
2023-01-22T03:17:42.302Z,-5.52
2023-01-22T03:22:44.438Z,-5.49
2023-01-22T03:28:05.310Z,-5.46
2023-01-22T03:33:09.838Z,-5.36
2023-01-22T03:38:13.004Z,-5.66
2023-01-22T03:43:15.437Z,-5.31
2023-01-22T03:48:17.992Z,-5.47
2023-01-22T03:53:22.506Z,-5.38
2023-01-22T03:58:25.163Z,-5.28
2023-01-22T04:03:29.100Z,-5.34
2023-01-22T04:08:33.494Z,-5.17
2023-01-22T04:13:37.300Z,-5.12
2023-01-22T04:18:41.412Z,-5.17
2023-01-22T04:24:02.461Z,-5.31
2023-01-22T04:29:04.734Z,-5.07
2023-01-22T04:34:07.060Z,-4.97
2023-01-22T04:39:15.913Z,-5.24
2023-01-22T04:44:18.121Z,-5.04
2023-01-22T04:49:20.397Z,-5.21
2023-01-22T04:54:26.143Z,-5.00
2023-01-22T04:59:28.364Z,-5.36
2023-01-22T05:04:32.045Z,-4.92
2023-01-22T05:09:34.327Z,-4.87
2023-01-22T05:14:36.970Z,-5.02
2023-01-22T05:19:39.285Z,-5.04
2023-01-22T05:24:46.616Z,-4.89
2023-01-22T05:29:49.780Z,-4.86
2023-01-22T05:35:27.697Z,-5.01
2023-01-22T05:40:31.958Z,-4.71
2023-01-22T05:45:34.302Z,-4.95
2023-01-22T05:51:04.762Z,-4.57
2023-01-22T05:56:07.442Z,-4.80
2023-01-22T06:01:14.383Z,-4.63
2023-01-22T06:06:23.451Z,-4.72
2023-01-22T06:11:26.150Z,-4.64
2023-01-22T06:16:28.480Z,-4.60
2023-01-22T06:21:47.049Z,-4.67
2023-01-22T06:26:49.308Z,-4.64
2023-01-22T06:31:51.548Z,-4.69
2023-01-22T06:36:54.760Z,-4.53
2023-01-22T06:41:59.746Z,-4.36
2023-01-22T06:47:02.141Z,-4.31
2023-01-22T06:52:07.559Z,-4.35
2023-01-22T06:57:10.139Z,-4.35
2023-01-22T07:02:21.235Z,-4.31
2023-01-22T07:07:23.558Z,-4.22
2023-01-22T07:12:25.701Z,-4.53
2023-01-22T07:17:27.919Z,-4.39
2023-01-22T07:22:32.616Z,-4.25
2023-01-22T07:27:35.335Z,-4.12
2023-01-22T07:32:37.511Z,-4.31
2023-01-22T07:37:39.650Z,-4.10
2023-01-22T07:42:41.760Z,-4.00
2023-01-22T07:47:59.975Z,-4.19
2023-01-22T07:53:02.289Z,-3.93
2023-01-22T07:58:07.907Z,-4.12
2023-01-22T08:03:15.051Z,-4.02
2023-01-22T08:08:20.770Z,-3.82
2023-01-22T08:13:22.940Z,-3.84
2023-01-22T08:18:25.221Z,-3.88
2023-01-22T08:23:28.100Z,-4.00
2023-01-22T08:28:31.462Z,-3.82
2023-01-22T08:33:34.448Z,-3.92
2023-01-22T08:38:36.678Z,-3.88
2023-01-22T08:43:38.850Z,-3.73
2023-01-22T08:48:43.568Z,-3.99
2023-01-22T08:53:45.756Z,-3.78
2023-01-22T08:58:51.856Z,-3.59
2023-01-22T09:03:53.994Z,-3.82
2023-01-22T09:08:56.306Z,-3.62
2023-01-22T09:13:59.117Z,-3.58
2023-01-22T09:19:01.349Z,-3.61
2023-01-22T09:24:04.708Z,-3.59
2023-01-22T09:29:07.143Z,-3.64
2023-01-22T09:34:09.513Z,-3.63
2023-01-22T09:39:11.741Z,-3.39
2023-01-22T09:44:41.627Z,-3.64
2023-01-22T09:49:54.636Z,-3.61
2023-01-22T09:54:57.016Z,-3.50
2023-01-22T09:59:59.376Z,-3.59
2023-01-22T10:05:05.542Z,-3.18
2023-01-22T10:10:28.638Z,-3.28
2023-01-22T10:15:30.867Z,-3.39
2023-01-22T10:20:33.800Z,-3.06
2023-01-22T10:25:36.008Z,-3.05
2023-01-22T10:30:49.059Z,-3.01
2023-01-22T10:35:53.956Z,-3.15
2023-01-22T10:41:01.577Z,-3.25
2023-01-22T10:46:07.549Z,-2.98
2023-01-22T10:51:19.699Z,-2.96
2023-01-22T10:56:36.907Z,-2.88
2023-01-22T11:01:43.394Z,-2.95
2023-01-22T11:06:48.779Z,-2.87
2023-01-22T11:12:09.725Z,-2.85
2023-01-22T11:17:34.763Z,-2.95
2023-01-22T11:22:39.273Z,-3.03
2023-01-22T11:28:22.986Z,-2.75
2023-01-22T11:33:47.174Z,-2.73
2023-01-22T11:38:54.404Z,-2.88
2023-01-22T11:44:23.255Z,-2.70
2023-01-22T11:50:06.380Z,-2.86
2023-01-22T11:55:41.177Z,-2.67
2023-01-22T12:00:58.938Z,-2.74
2023-01-22T12:06:21.436Z,-2.79
2023-01-22T12:11:36.692Z,-2.63
2023-01-22T12:16:51.032Z,-2.63
2023-01-22T12:22:03.915Z,-2.71
2023-01-22T12:27:28.935Z,-2.66
2023-01-22T12:32:32.316Z,-2.65
2023-01-22T12:37:47.607Z,-2.84
2023-01-22T12:43:02.876Z,-2.75
2023-01-22T12:48:28.850Z,-2.59
2023-01-22T12:53:35.956Z,-2.88
2023-01-22T12:58:40.627Z,-2.70
2023-01-22T13:03:43.255Z,-2.83
2023-01-22T13:08:49.748Z,-2.88
2023-01-22T13:14:09.918Z,-2.72
2023-01-22T13:19:42.443Z,-2.59
2023-01-22T13:24:57.199Z,-2.57
2023-01-22T13:30:22.799Z,-2.99
2023-01-22T13:35:25.071Z,-2.69
2023-01-22T13:40:31.465Z,-2.59
2023-01-22T13:45:40.155Z,-2.58
2023-01-22T13:50:50.937Z,-3.00
2023-01-22T13:55:54.467Z,-2.80
2023-01-22T14:00:56.695Z,-2.57
2023-01-22T14:06:15.261Z,-2.56
2023-01-22T14:11:18.213Z,-2.86
2023-01-22T14:16:21.748Z,-2.84
2023-01-22T14:21:24.007Z,-2.66
2023-01-22T14:26:26.355Z,-2.58
2023-01-22T14:31:28.890Z,-2.91
2023-01-22T14:36:31.677Z,-2.63
2023-01-22T14:41:33.961Z,-2.69
2023-01-22T14:46:38.312Z,-2.83
2023-01-22T14:51:41.456Z,-2.71
2023-01-22T14:56:43.821Z,-2.75
2023-01-22T15:01:46.217Z,-2.92
2023-01-22T15:06:49.166Z,-2.85
2023-01-22T15:11:51.370Z,-2.86
2023-01-22T15:16:53.910Z,-2.69
2023-01-22T15:21:58.759Z,-2.53
2023-01-22T15:27:01.040Z,-2.89
2023-01-22T15:32:03.619Z,-2.74
2023-01-22T15:37:06.131Z,-2.53
2023-01-22T15:42:08.864Z,-2.66
2023-01-22T15:47:11.224Z,-2.64
2023-01-22T15:52:13.709Z,-2.92
2023-01-22T15:57:16.172Z,-2.53
2023-01-22T16:02:18.878Z,-2.53
2023-01-22T16:07:26.850Z,-2.51
2023-01-22T16:12:30.554Z,-2.60
2023-01-22T16:17:33.381Z,-2.65
2023-01-22T16:22:35.905Z,-2.60
2023-01-22T16:27:39.281Z,-2.56
2023-01-22T16:32:43.654Z,-2.71
2023-01-22T16:37:45.980Z,-2.68
2023-01-22T16:43:00.138Z,-2.52
2023-01-22T16:48:02.737Z,-2.48
2023-01-22T16:53:05.146Z,-2.47
2023-01-22T16:58:07.747Z,-2.54
2023-01-22T17:03:17.250Z,-2.53
2023-01-22T17:08:22.540Z,-2.57
2023-01-22T17:13:24.774Z,-2.49
2023-01-22T17:18:27.577Z,-2.78
2023-01-22T17:23:29.912Z,-2.70
2023-01-22T17:28:36.882Z,-2.72
2023-01-22T17:33:40.210Z,-2.68
2023-01-22T17:38:42.756Z,-2.50
2023-01-22T17:43:46.695Z,-2.53
2023-01-22T17:48:51.613Z,-2.78
2023-01-22T17:53:55.765Z,-2.55
2023-01-22T17:59:01.246Z,-2.49
2023-01-22T18:04:24.311Z,-2.49
2023-01-22T18:09:26.824Z,-2.56
2023-01-22T18:14:34.187Z,-2.51
2023-01-22T18:19:36.747Z,-2.50
2023-01-22T18:24:40.369Z,-2.51
2023-01-22T18:29:45.749Z,-2.56
2023-01-22T18:34:48.268Z,-2.62
2023-01-22T18:39:50.650Z,-2.50
2023-01-22T18:44:53.137Z,-2.45
2023-01-22T18:49:55.611Z,-2.73
2023-01-22T18:54:57.831Z,-2.70
2023-01-22T19:00:00.105Z,-2.50
2023-01-22T19:05:02.844Z,-2.70
2023-01-22T19:10:09.039Z,-2.82
2023-01-22T19:15:12.035Z,-2.67
2023-01-22T19:20:15.540Z,-2.68
2023-01-22T19:25:18.264Z,-2.78
2023-01-22T19:30:23.280Z,-2.73
2023-01-22T19:35:25.633Z,-2.53
2023-01-22T19:40:28.008Z,-2.91
2023-01-22T19:45:30.286Z,-2.84
2023-01-22T19:50:36.232Z,-2.56
2023-01-22T19:55:41.215Z,-2.58
2023-01-22T20:00:43.458Z,-2.52
2023-01-22T20:05:45.723Z,-2.62
2023-01-22T20:10:51.231Z,-2.50
2023-01-22T20:15:54.491Z,-2.78
2023-01-22T20:20:58.755Z,-2.49
2023-01-22T20:26:03.085Z,-2.53
2023-01-22T20:31:07.896Z,-2.62
2023-01-22T20:36:15.311Z,-2.55
2023-01-22T20:41:18.908Z,-2.68
2023-01-22T20:46:23.195Z,-2.67
2023-01-22T20:51:27.857Z,-2.68
2023-01-22T20:56:32.923Z,-2.68
2023-01-22T21:01:35.632Z,-2.60
2023-01-22T21:06:39.729Z,-2.97
2023-01-22T21:11:42.766Z,-2.83
2023-01-22T21:16:45.112Z,-2.82
2023-01-22T21:21:47.680Z,-2.92
2023-01-22T21:26:50.446Z,-2.74
2023-01-22T21:31:53.347Z,-2.63
2023-01-22T21:36:58.651Z,-2.64
2023-01-22T21:42:19.888Z,-2.64
2023-01-22T21:47:22.091Z,-2.70
2023-01-22T21:52:24.294Z,-2.77
2023-01-22T21:57:27.092Z,-2.72
2023-01-22T22:02:29.291Z,-2.98
2023-01-22T22:07:31.540Z,-2.85
2023-01-22T22:12:33.690Z,-2.67
2023-01-22T22:17:37.073Z,-2.80
2023-01-22T22:22:39.332Z,-2.78
2023-01-22T22:27:41.528Z,-2.59
2023-01-22T22:32:43.813Z,-2.64
2023-01-22T22:37:46.005Z,-2.99
2023-01-22T22:42:48.145Z,-3.03
2023-01-22T22:47:50.398Z,-2.82
2023-01-22T22:52:52.528Z,-2.60
2023-01-22T22:57:54.688Z,-2.61
2023-01-22T23:02:56.908Z,-2.59
2023-01-22T23:07:59.076Z,-3.02
2023-01-22T23:13:02.459Z,-2.59
2023-01-22T23:18:04.685Z,-2.86
2023-01-22T23:23:06.872Z,-2.96
2023-01-22T23:28:09.116Z,-2.81
2023-01-22T23:33:11.341Z,-2.65
2023-01-22T23:38:13.467Z,-2.82
2023-01-22T23:43:15.554Z,-2.76
2023-01-22T23:48:18.168Z,-2.64
2023-01-22T23:53:21.747Z,-2.70
2023-01-22T23:58:24.230Z,-2.98
